createdAt,value
2022-10-17T00:01:17.237Z,99342.06
2022-10-17T00:06:24.012Z,99345.93
2022-10-17T00:11:30.690Z,99354.41
2022-10-17T00:16:38.275Z,99364.80
2022-10-17T00:21:45.369Z,99365.80
2022-10-17T00:26:51.936Z,99369.43
2022-10-17T00:31:58.967Z,99366.21
2022-10-17T00:37:05.786Z,99369.20
2022-10-17T00:42:14.326Z,99372.17
2022-10-17T00:47:22.665Z,99373.43
2022-10-17T00:52:30.523Z,99375.95
2022-10-17T00:57:37.919Z,99373.73
2022-10-17T01:02:44.467Z,99379.33
2022-10-17T01:07:52.565Z,99378.38
2022-10-17T01:13:05.365Z,99376.57
2022-10-17T01:18:17.486Z,99373.99
2022-10-17T01:23:32.359Z,99373.74
2022-10-17T01:28:52.336Z,99380.99
2022-10-17T01:34:02.825Z,99387.02
2022-10-17T01:39:15.023Z,99388.14
2022-10-17T01:44:23.260Z,99380.34
2022-10-17T01:49:31.455Z,99382.23
2022-10-17T01:54:41.770Z,99385.70
2022-10-17T01:59:49.569Z,99394.73
2022-10-17T02:04:57.651Z,99392.27
2022-10-17T02:10:04.806Z,99401.82
2022-10-17T02:15:22.986Z,99397.62
2022-10-17T02:20:32.636Z,99388.45
2022-10-17T02:25:42.029Z,99386.55
2022-10-17T02:30:50.576Z,99379.02
2022-10-17T02:35:59.943Z,99380.52
2022-10-17T02:41:08.058Z,99385.84
2022-10-17T02:46:21.449Z,99390.03
2022-10-17T02:51:31.166Z,99386.33
2022-10-17T02:56:40.006Z,99391.27
2022-10-17T03:01:46.685Z,99393.31
2022-10-17T03:06:53.366Z,99402.59
2022-10-17T03:12:00.570Z,99409.12
2022-10-17T03:17:07.251Z,99410.77
2022-10-17T03:22:13.711Z,99414.13
2022-10-17T03:27:20.295Z,99418.15
2022-10-17T03:32:27.090Z,99420.73
2022-10-17T03:37:33.921Z,99421.94
2022-10-17T03:42:40.956Z,99428.14
2022-10-17T03:47:47.711Z,99434.66
2022-10-17T03:52:54.202Z,99430.16
2022-10-17T03:58:00.920Z,99437.63
2022-10-17T04:03:07.350Z,99436.70
2022-10-17T04:08:13.886Z,99438.58
2022-10-17T04:13:20.332Z,99446.92
2022-10-17T04:18:27.041Z,99448.92
2022-10-17T04:23:33.724Z,99448.02
2022-10-17T04:28:40.533Z,99453.57
2022-10-17T04:33:48.743Z,99454.98
2022-10-17T04:38:55.331Z,99460.91
2022-10-17T04:44:02.070Z,99456.35
2022-10-17T04:49:08.884Z,99448.69
2022-10-17T04:54:15.371Z,99447.55
2022-10-17T04:59:22.492Z,99445.55
2022-10-17T05:04:28.950Z,99450.86
2022-10-17T05:09:35.700Z,99457.17
2022-10-17T05:14:42.401Z,99461.20
2022-10-17T05:19:49.011Z,99463.70
2022-10-17T05:24:55.548Z,99471.35
2022-10-17T05:30:02.462Z,99472.29
2022-10-17T05:35:09.711Z,99477.57
2022-10-17T05:40:16.604Z,99480.39
2022-10-17T05:45:23.484Z,99485.74
2022-10-17T05:50:30.363Z,99487.46
2022-10-17T05:55:37.433Z,99492.59
2022-10-17T06:00:44.174Z,99492.52
2022-10-17T06:05:50.923Z,99496.01
2022-10-17T06:10:57.390Z,99502.55
2022-10-17T06:16:03.830Z,99509.07
2022-10-17T06:21:11.615Z,99516.89
2022-10-17T06:26:18.410Z,99522.88
2022-10-17T06:31:24.980Z,99525.09
2022-10-17T06:36:31.545Z,99532.26
2022-10-17T06:41:38.464Z,99534.30
2022-10-17T06:46:45.361Z,99538.78
2022-10-17T06:51:51.902Z,99537.52
2022-10-17T06:56:58.570Z,99547.10
2022-10-17T07:02:05.830Z,99542.94
2022-10-17T07:07:12.454Z,99544.78
2022-10-17T07:12:18.872Z,99555.05
2022-10-17T07:17:25.410Z,99562.60
2022-10-17T07:22:31.936Z,99565.84
2022-10-17T07:27:38.574Z,99574.98
2022-10-17T07:32:45.629Z,99577.41
2022-10-17T07:37:52.351Z,99580.48
2022-10-17T07:42:59.000Z,99585.67
2022-10-17T07:48:05.820Z,99588.19
2022-10-17T07:53:13.084Z,99593.77
2022-10-17T07:58:20.181Z,99593.45
2022-10-17T08:03:26.910Z,99589.29
2022-10-17T08:08:33.738Z,99588.03
2022-10-17T08:13:40.889Z,99591.23
2022-10-17T08:18:47.611Z,99591.25
2022-10-17T08:23:54.113Z,99586.94
2022-10-17T08:29:00.760Z,99587.73
2022-10-17T08:34:07.430Z,99591.17
2022-10-17T08:39:14.009Z,99594.41
2022-10-17T08:44:27.539Z,99597.64
2022-10-17T08:49:39.390Z,99596.10
2022-10-17T08:54:47.810Z,99592.95
2022-10-17T08:59:55.392Z,99590.83
2022-10-17T09:05:10.871Z,99595.80
2022-10-17T09:10:23.309Z,99591.90
2022-10-17T09:15:40.361Z,99589.77
2022-10-17T09:20:47.840Z,99589.45
2022-10-17T09:25:55.193Z,99587.11
2022-10-17T09:31:03.330Z,99588.27
2022-10-17T09:36:14.518Z,99591.39
2022-10-17T09:41:44.368Z,99588.69
2022-10-17T09:46:56.440Z,99592.59
2022-10-17T09:52:04.671Z,99592.38
2022-10-17T09:57:12.262Z,99591.92
2022-10-17T10:02:20.943Z,99589.47
2022-10-17T10:07:29.454Z,99586.44
2022-10-17T10:12:37.466Z,99588.62
2022-10-17T10:17:44.411Z,99591.65
2022-10-17T10:23:06.441Z,99592.02
2022-10-17T10:28:13.735Z,99586.35
2022-10-17T10:33:21.001Z,99580.12
2022-10-17T10:38:27.840Z,99580.75
2022-10-17T10:43:38.159Z,99577.59
2022-10-17T10:48:51.911Z,99576.79
2022-10-17T10:54:03.091Z,99574.34
2022-10-17T10:59:12.953Z,99573.56
2022-10-17T11:04:29.240Z,99574.04
2022-10-17T11:09:43.300Z,99571.10
2022-10-17T11:14:53.769Z,99565.69
2022-10-17T11:20:05.652Z,99560.79
2022-10-17T11:25:21.490Z,99556.98
2022-10-17T11:30:30.294Z,99560.59
2022-10-17T11:35:38.796Z,99561.55
2022-10-17T11:40:47.424Z,99559.80
2022-10-17T11:45:54.991Z,99555.39
2022-10-17T11:56:33.859Z,99550.89
2022-10-17T12:01:42.730Z,99547.12
2022-10-17T12:07:00.553Z,99547.83
2022-10-17T12:12:07.134Z,99546.81
2022-10-17T12:17:27.373Z,99542.21
2022-10-17T12:22:35.283Z,99536.77
2022-10-17T12:33:59.412Z,99526.77
2022-10-17T12:39:25.769Z,99527.38
2022-10-17T12:44:39.783Z,99524.97
2022-10-17T12:49:47.131Z,99527.79
2022-10-17T12:55:17.031Z,99524.91
2022-10-17T13:00:25.904Z,99523.94
2022-10-17T13:05:33.791Z,99518.52
2022-10-17T13:10:43.614Z,99521.04
2022-10-17T13:15:51.209Z,99523.64
2022-10-17T13:21:02.198Z,99521.27
2022-10-17T13:26:10.391Z,99522.36
2022-10-17T13:31:31.836Z,99516.36
2022-10-17T13:36:38.779Z,99513.37
2022-10-17T13:41:45.403Z,99514.58
2022-10-17T13:46:52.026Z,99510.34
2022-10-17T13:52:00.163Z,99506.23
2022-10-17T13:57:07.650Z,99509.30
2022-10-17T14:02:16.992Z,99511.90
2022-10-17T14:07:27.108Z,99510.19
2022-10-17T14:12:35.031Z,99502.94
2022-10-17T14:17:42.182Z,99504.59
2022-10-17T14:23:04.521Z,99505.54
2022-10-17T14:28:18.842Z,99501.83
2022-10-17T14:33:26.453Z,99505.08
2022-10-17T14:38:33.500Z,99504.91
2022-10-17T14:43:39.919Z,99505.38
2022-10-17T14:48:48.082Z,99508.45
2022-10-17T14:54:05.579Z,99510.73
2022-10-17T14:59:21.434Z,99510.09
2022-10-17T15:04:32.772Z,99507.02
2022-10-17T15:09:40.327Z,99504.90
2022-10-17T15:14:48.324Z,99505.20
2022-10-17T15:19:54.881Z,99501.37
2022-10-17T15:25:01.588Z,99498.38
2022-10-17T15:30:21.459Z,99495.31
2022-10-17T15:35:29.214Z,99499.88
2022-10-17T15:40:35.816Z,99495.92
2022-10-17T15:45:42.462Z,99496.14
2022-10-17T15:50:49.161Z,99494.27
2022-10-17T15:55:55.871Z,99490.41
2022-10-17T16:01:02.678Z,99490.91
2022-10-17T16:06:13.494Z,99490.97
2022-10-17T16:11:23.739Z,99490.67
2022-10-17T16:16:30.539Z,99491.53
2022-10-17T16:21:38.187Z,99501.92
2022-10-17T16:26:45.022Z,99511.20
2022-10-17T16:31:51.696Z,99508.63
2022-10-17T16:36:58.197Z,99510.02
2022-10-17T16:42:04.556Z,99509.68
2022-10-17T16:47:11.607Z,99511.91
2022-10-17T16:52:18.123Z,99520.40
2022-10-17T16:57:24.861Z,99518.52
2022-10-17T17:02:31.536Z,99509.29
2022-10-17T17:07:38.496Z,99511.59
2022-10-17T17:12:45.288Z,99506.02
2022-10-17T17:17:55.371Z,99507.98
2022-10-17T17:23:02.543Z,99505.37
2022-10-17T17:28:09.900Z,99502.95
2022-10-17T17:33:16.785Z,99506.89
2022-10-17T17:38:23.345Z,99509.09
2022-10-17T17:43:30.246Z,99514.91
2022-10-17T17:48:38.706Z,99513.41
2022-10-17T17:53:45.478Z,99509.15
2022-10-17T17:58:56.100Z,99512.41
2022-10-17T18:04:05.920Z,99511.54
2022-10-17T18:09:12.645Z,99510.48
2022-10-17T18:14:24.614Z,99514.59
2022-10-17T18:19:31.519Z,99508.23
2022-10-17T18:24:38.906Z,99514.04
2022-10-17T18:29:47.072Z,99512.45
2022-10-17T18:34:54.105Z,99509.02
2022-10-17T18:40:00.634Z,99512.48
2022-10-17T18:45:07.971Z,99510.73
2022-10-17T18:50:14.291Z,99517.52
2022-10-17T18:55:21.090Z,99519.16
2022-10-17T19:00:27.952Z,99518.70
2022-10-17T19:05:35.190Z,99522.78
2022-10-17T19:10:41.982Z,99528.29
2022-10-17T19:15:48.709Z,99530.33
2022-10-17T19:20:55.480Z,99523.25
2022-10-17T19:26:06.003Z,99518.52
2022-10-17T19:31:16.903Z,99508.15
2022-10-17T19:36:28.833Z,99503.91
2022-10-17T19:41:39.335Z,99508.95
2022-10-17T19:46:47.207Z,99508.79
2022-10-17T19:51:53.763Z,99511.77
2022-10-17T19:57:00.593Z,99508.70
2022-10-17T20:02:07.273Z,99503.44
2022-10-17T20:07:13.983Z,99500.66
2022-10-17T20:12:20.651Z,99507.83
2022-10-17T20:17:27.736Z,99506.20
2022-10-17T20:22:34.993Z,99507.69
2022-10-17T20:27:41.729Z,99503.92
2022-10-17T20:32:48.397Z,99501.46
2022-10-17T20:37:55.050Z,99500.44
2022-10-17T20:43:01.778Z,99503.38
2022-10-17T20:48:08.974Z,99498.54
2022-10-17T20:53:36.599Z,99496.34
2022-10-17T20:58:43.170Z,99499.00
2022-10-17T21:03:49.890Z,99495.58
2022-10-17T21:08:56.770Z,99493.85
2022-10-17T21:14:04.126Z,99495.73
2022-10-17T21:19:11.939Z,99494.39
2022-10-17T21:24:21.061Z,99493.13
2022-10-17T21:29:27.990Z,99493.06
2022-10-17T21:34:34.627Z,99486.06
2022-10-17T21:39:41.399Z,99488.65
2022-10-17T21:44:47.988Z,99488.80
2022-10-17T21:49:54.508Z,99489.04
2022-10-17T21:55:01.178Z,99483.29
2022-10-17T22:00:08.473Z,99482.34
2022-10-17T22:05:15.348Z,99476.77
2022-10-17T22:10:21.924Z,99475.51
2022-10-17T22:15:28.564Z,99481.89
2022-10-17T22:20:36.985Z,99485.83
2022-10-17T22:25:43.767Z,99482.35
2022-10-17T22:30:50.506Z,99480.69
2022-10-17T22:35:57.045Z,99470.80
2022-10-17T22:41:03.845Z,99466.87
2022-10-17T22:46:13.306Z,99471.17
2022-10-17T22:51:20.127Z,99466.44
2022-10-17T22:56:26.799Z,99471.29
2022-10-17T23:01:33.358Z,99465.52
2022-10-17T23:06:40.245Z,99459.76
2022-10-17T23:11:46.867Z,99459.78
2022-10-17T23:16:53.705Z,99457.17
2022-10-17T23:22:00.326Z,99456.38
2022-10-17T23:27:07.180Z,99453.10
2022-10-17T23:32:13.752Z,99451.36
2022-10-17T23:37:20.873Z,99447.27
2022-10-17T23:42:27.581Z,99444.83
2022-10-17T23:47:34.394Z,99442.39
2022-10-17T23:52:41.152Z,99441.22
2022-10-17T23:57:47.890Z,99449.63
